»·PEaware :: AAL9010 KPSP-KPHX

AAL9010 :: KPSP-KPHX

FLIGHT INFORMATION

Flight Status: Arrived
Operator:
American Airlines
More flights by this operator :: More flights under this callsign
Pilot: Skye D. (10623)
Aircraft: BOEING 767-300
(B763)
More flights by this aircraft type
Origin: KPSP Palm Springs Intl
United States
Destination: KPHX Phoenix Sky Harbor Intl
United States
More flights between these airports :: More routes between these airports
Route: +CATH1 PSP BLH HYDRR1
File this flight plan on PilotEdge
Remarks:
Altitude:
(Current/Filed)
29,000ft
Speed:
(Current/Filed)
350kts
Departed: 02-Dec-17 10:14 AM
Arrived: 02-Dec-17 10:58 AM
Distance/Time
Traveled:
226nm/0:43
Distance/Time
To Go:
Arrived

Flight Plot

Page will automatically refresh every two minutes.


Map Options




Map Legend


Flown Route
Filed Route
Departure Airport
Arrival Airport
Navaid (VOR, NDB)
Fix

Horizontal Profiles

Position Reports

Time Latitude Longitude Heading Altitude Ground
Speed
02-Dec-17 09:55 33.823768 -116.506117 225 488ft 0kts
02-Dec-17 09:56 33.823768 -116.506117 225 488ft 0kts
02-Dec-17 09:57 33.823768 -116.506117 225 488ft 0kts
02-Dec-17 09:58 33.823768 -116.506117 225 488ft 0kts
02-Dec-17 09:59 33.823768 -116.506117 225 488ft 0kts
02-Dec-17 10:00 33.823768 -116.506117 225 488ft 0kts
02-Dec-17 10:01 33.823768 -116.506117 225 488ft 0kts
02-Dec-17 10:02 33.823768 -116.506117 225 488ft 0kts
02-Dec-17 10:03 33.823768 -116.506117 225 488ft 0kts
02-Dec-17 10:04 33.823768 -116.506117 225 488ft 0kts
02-Dec-17 10:05 33.823768 -116.506117 225 488ft 0kts
02-Dec-17 10:06 33.823768 -116.506117 225 488ft 0kts
02-Dec-17 10:07 33.823768 -116.506117 225 488ft 0kts
02-Dec-17 10:08 33.823840 -116.506034 215 488ft 2kts
02-Dec-17 10:09 33.824406 -116.505915 160 488ft 2kts
02-Dec-17 10:10 33.824760 -116.506184 143 488ft 0kts
02-Dec-17 10:11 33.824760 -116.506184 143 488ft 0kts
02-Dec-17 10:12 33.824760 -116.506184 143 488ft 0kts
02-Dec-17 10:13 33.823538 -116.505102 143 488ft 10kts
02-Dec-17 10:14 33.823011 -116.504491 98 488ft 1kts
02-Dec-17 10:15 33.821265 -116.502200 144 488ft 16kts
02-Dec-17 10:16 33.818714 -116.499906 129 488ft 7kts
02-Dec-17 10:17 33.818534 -116.499234 95 488ft 2kts
02-Dec-17 10:18 33.819054 -116.498269 335 488ft 6kts
02-Dec-17 10:19 33.826243 -116.504601 322 489ft 122kts
02-Dec-17 10:20 33.857960 -116.534064 321 2263ft 174kts
02-Dec-17 10:21 33.895581 -116.568918 334 4803ft 192kts
02-Dec-17 10:22 33.922103 -116.517189 111 6955ft 255kts
02-Dec-17 10:23 33.884458 -116.442410 127 10371ft 278kts
02-Dec-17 10:24 33.828346 -116.357078 120 12318ft 369kts
02-Dec-17 10:25 33.777314 -116.249949 108 12988ft 372kts
02-Dec-17 10:26 33.766438 -116.129281 96 15366ft 385kts
02-Dec-17 10:27 33.751877 -116.000721 97 19048ft 400kts
02-Dec-17 10:28 33.735576 -115.866078 96 22076ft 421kts
02-Dec-17 10:29 33.718140 -115.723846 96 24678ft 442kts
02-Dec-17 10:30 33.699886 -115.576676 96 27087ft 459kts
02-Dec-17 10:31 33.680537 -115.422278 97 29062ft 478kts
02-Dec-17 10:32 33.661365 -115.268055 97 29099ft 476kts
02-Dec-17 10:33 33.641696 -115.112980 97 29100ft 471kts
02-Dec-17 10:34 33.621816 -114.958991 97 29100ft 471kts
02-Dec-17 10:35 33.601664 -114.804580 97 29100ft 471kts
02-Dec-17 10:36 33.574203 -114.648967 101 29127ft 487kts
02-Dec-17 10:37 33.543244 -114.490873 101 28408ft 482kts
02-Dec-17 10:38 33.513242 -114.338410 102 26112ft 464kts
02-Dec-17 10:39 33.484728 -114.192027 102 24005ft 444kts
02-Dec-17 10:40 33.457518 -114.055094 102 23075ft 396kts
02-Dec-17 10:41 33.432238 -113.929816 102 22946ft 387kts
02-Dec-17 10:42 33.407387 -113.806468 102 21920ft 379kts
02-Dec-17 10:43 33.382843 -113.685220 102 20942ft 373kts
02-Dec-17 10:44 33.358661 -113.566441 102 20068ft 366kts
02-Dec-17 10:45 33.334947 -113.449191 101 19159ft 361kts
02-Dec-17 10:46 33.315164 -113.334015 101 17512ft 351kts
02-Dec-17 10:47 33.296017 -113.220691 101 16030ft 347kts
02-Dec-17 10:48 33.280750 -113.113954 101 14816ft 346kts
02-Dec-17 10:49 33.276122 -113.003053 90 13640ft 329kts
02-Dec-17 10:50 33.278652 -112.897122 90 12374ft 325kts
02-Dec-17 10:51 33.291341 -112.793919 68 11170ft 313kts
02-Dec-17 10:52 33.325828 -112.700456 67 10346ft 297kts
02-Dec-17 10:53 33.357501 -112.617171 67 9261ft 284kts
02-Dec-17 10:54 33.387052 -112.539573 67 8337ft 278kts
02-Dec-17 10:55 33.416991 -112.457548 68 7376ft 264kts
02-Dec-17 10:56 33.428136 -112.376597 90 6419ft 248kts
02-Dec-17 10:57 33.428715 -112.296596 89 5990ft 245kts
02-Dec-17 10:58 33.440577 -112.217020 75 4026ft 242kts
02-Dec-17 10:59 33.440795 -112.150764 99 3136ft 224kts
02-Dec-17 11:00 33.441253 -112.096103 84 2346ft 178kts
02-Dec-17 11:01 33.440940 -112.053299 87 1583ft 143kts
02-Dec-17 11:02 33.440849 -112.015936 88 1146ft 115kts
02-Dec-17 11:03 33.440299 -112.004506 138 1145ft 11kts
02-Dec-17 11:04 33.439919 -112.004086 135 1145ft 0kts
02-Dec-17 11:05 33.439854 -112.004003 129 1145ft 2kts
02-Dec-17 11:06 33.439778 -111.999856 90 1145ft 14kts
02-Dec-17 11:07 33.438404 -111.997605 136 1145ft 5kts
02-Dec-17 11:08 33.438226 -111.997398 135 1145ft 0kts
02-Dec-17 11:09 33.438226 -111.997398 135 1145ft 0kts

Navigation Log

Ident Type
Flight plan parsing failed, navigation log unavailable